Time;durP1;ratioP1;P1;durP2;ratioP2;P2;SDS_P1;SDS_P2;PMS_P1;PMS_P2;Temp;Humidity;BMP_temperature;BMP_pressure;BME280_temperature;BME280_humidity;BME280_pressure;Samples;Min_cycle;Max_cycle;Signal;HPM_P1;HPM_P2
2023/04/03 00:00:22;;;;;;;10.40;4.27;;;1.20;99.90;;;;;;5074720;28;20190;-50
2023/04/03 00:02:48;;;;;;;7.63;4.00;;;1.20;99.90;;;;;;5074794;28;20207;-49
2023/04/03 00:05:14;;;;;;;10.00;3.70;;;1.10;99.90;;;;;;5074373;28;20232;-49
2023/04/03 00:07:40;;;;;;;10.67;3.90;;;1.10;99.90;;;;;;5074715;28;20209;-49
2023/04/03 00:10:06;;;;;;;10.47;4.07;;;1.10;99.90;;;;;;5056651;28;20216;-48
2023/04/03 00:12:31;;;;;;;8.67;4.10;;;1.10;99.90;;;;;;5074099;28;20210;-49
2023/04/03 00:14:57;;;;;;;6.97;3.57;;;1.10;99.90;;;;;;5074189;28;20183;-49
2023/04/03 00:17:22;;;;;;;7.23;4.10;;;1.10;99.90;;;;;;5074676;28;20217;-51
2023/04/03 00:19:48;;;;;;;15.37;4.37;;;1.10;99.90;;;;;;5074401;28;20187;-50
2023/04/03 00:22:13;;;;;;;7.43;4.10;;;1.10;99.90;;;;;;5074663;28;20681;-50
2023/04/03 00:24:39;;;;;;;5.73;4.10;;;1.20;99.90;;;;;;5056796;28;20654;-49
2023/04/03 00:27:04;;;;;;;8.77;4.10;;;1.10;99.90;;;;;;5075198;28;20190;-49
2023/04/03 00:29:30;;;;;;;10.50;4.47;;;1.20;99.90;;;;;;5055841;28;20197;-50
2023/04/03 00:31:56;;;;;;;8.33;4.23;;;1.20;99.90;;;;;;5074438;28;20235;-49
2023/04/03 00:34:21;;;;;;;10.87;4.93;;;1.20;99.90;;;;;;5074009;28;20263;-51
2023/04/03 00:36:47;;;;;;;7.23;4.40;;;1.20;99.90;;;;;;5074113;28;20184;-50
2023/04/03 00:39:12;;;;;;;10.53;3.80;;;1.10;99.90;;;;;;5073954;28;20203;-50
2023/04/03 00:41:38;;;;;;;7.33;4.37;;;1.10;99.90;;;;;;5074038;28;20284;-49
2023/04/03 00:44:40;;;;;;;5.67;3.97;;;1.10;99.90;;;;;;5073679;28;20179;-49
2023/04/03 00:47:08;;;;;;;5.33;3.90;;;1.10;99.90;;;;;;5032809;28;20214;-50
2023/04/03 00:49:35;;;;;;;6.77;3.77;;;1.10;99.90;;;;;;5074529;28;20311;-49
2023/04/03 00:52:01;;;;;;;10.20;4.27;;;1.10;99.90;;;;;;5055926;28;20686;-50
2023/04/03 00:54:27;;;;;;;8.27;4.30;;;1.10;99.90;;;;;;5073966;28;20212;-50
2023/04/03 00:56:56;;;;;;;11.60;4.13;;;1.10;99.90;;;;;;5074230;28;20273;-50
2023/04/03 00:59:26;;;;;;;6.43;4.03;;;1.10;99.90;;;;;;5073937;28;20278;-50
2023/04/03 01:01:54;;;;;;;5.43;3.90;;;1.10;99.90;;;;;;5075091;28;20240;-50
2023/04/03 01:04:28;;;;;;;10.03;5.50;;;1.10;99.90;;;;;;5073911;28;20189;-51
2023/04/03 01:06:56;;;;;;;8.70;4.27;;;1.10;99.90;;;;;;5073860;28;20262;-50
2023/04/03 01:09:22;;;;;;;6.10;4.30;;;1.10;99.90;;;;;;5075695;28;20278;-50
2023/04/03 01:11:47;;;;;;;4.87;4.37;;;1.20;99.90;;;;;;5077737;28;20235;-50
2023/04/03 01:14:13;;;;;;;6.67;4.73;;;1.20;99.90;;;;;;5077687;28;20563;-50
2023/04/03 01:16:39;;;;;;;5.47;4.20;;;1.20;99.90;;;;;;5077698;28;20191;-49
2023/04/03 01:19:12;;;;;;;9.47;4.60;;;1.20;99.90;;;;;;5077598;28;20549;-51
2023/04/03 01:21:58;;;;;;;7.37;4.47;;;1.20;99.90;;;;;;5078003;28;20211;-51
2023/04/03 01:24:38;;;;;;;7.47;4.57;;;1.20;99.90;;;;;;5077290;28;20657;-51
2023/04/03 01:27:06;;;;;;;8.50;4.37;;;1.10;99.90;;;;;;5077710;28;20192;-52
2023/04/03 01:29:32;;;;;;;7.93;5.07;;;1.10;99.90;;;;;;5077445;28;20182;-49
2023/04/03 01:32:01;;;;;;;9.77;5.00;;;1.10;99.90;;;;;;5077136;28;20232;-50
2023/04/03 01:34:28;;;;;;;9.97;5.03;;;1.10;99.90;;;;;;5077293;28;20214;-51
2023/04/03 01:36:54;;;;;;;7.60;4.53;;;1.00;99.90;;;;;;5077412;28;20233;-48
2023/04/03 01:39:20;;;;;;;7.27;4.50;;;1.00;99.90;;;;;;5077238;28;20243;-49
2023/04/03 01:41:46;;;;;;;7.13;4.80;;;0.90;99.90;;;;;;5077401;28;20474;-50
2023/04/03 01:44:12;;;;;;;6.07;4.20;;;0.90;99.90;;;;;;5059570;28;20189;-48
2023/04/03 01:46:38;;;;;;;9.13;4.40;;;0.80;99.90;;;;;;5059022;28;20202;-50
2023/04/03 01:49:04;;;;;;;8.50;5.00;;;0.80;99.90;;;;;;5077608;28;20219;-49
2023/04/03 01:51:30;;;;;;;10.33;4.53;;;0.70;99.90;;;;;;5077675;28;20214;-49
2023/04/03 01:53:56;;;;;;;10.67;5.00;;;0.70;99.90;;;;;;5077442;28;20464;-50
2023/04/03 01:56:22;;;;;;;6.70;4.40;;;0.70;99.90;;;;;;5078504;28;20421;-50
2023/04/03 01:58:48;;;;;;;7.07;4.60;;;0.70;99.90;;;;;;5077077;28;20597;-49
2023/04/03 02:01:13;;;;;;;7.97;5.00;;;0.70;99.90;;;;;;5076969;28;20285;-50
2023/04/03 02:03:39;;;;;;;6.93;4.93;;;0.70;99.90;;;;;;5077443;28;20198;-50
2023/04/03 02:06:05;;;;;;;6.67;4.60;;;0.70;99.90;;;;;;5077769;28;20169;-50
2023/04/03 02:08:30;;;;;;;6.17;4.80;;;0.70;99.90;;;;;;5080352;28;20179;-49
2023/04/03 02:10:56;;;;;;;7.47;5.03;;;0.70;99.90;;;;;;5080283;28;20574;-50
2023/04/03 02:13:21;;;;;;;7.10;5.10;;;0.80;99.90;;;;;;5080990;28;20202;-50
2023/04/03 02:15:47;;;;;;;7.43;5.10;;;0.70;99.90;;;;;;5081727;28;20242;-49
2023/04/03 02:18:13;;;;;;;7.67;5.23;;;0.70;99.90;;;;;;5081889;28;20179;-50
2023/04/03 02:20:39;;;;;;;8.23;5.27;;;0.70;99.90;;;;;;5080905;28;20182;-51
2023/04/03 02:23:05;;;;;;;7.00;5.20;;;0.70;99.90;;;;;;5081706;28;20609;-50
2023/04/03 02:25:32;;;;;;;11.93;6.33;;;0.70;99.90;;;;;;5081306;28;20227;-49
2023/04/03 02:27:57;;;;;;;10.83;6.30;;;0.70;99.90;;;;;;5082086;28;20461;-49
2023/04/03 02:30:23;;;;;;;9.67;6.63;;;0.60;99.90;;;;;;5082041;28;20508;-49
2023/04/03 02:32:48;;;;;;;8.00;6.40;;;0.60;99.90;;;;;;5081295;28;20209;-50
2023/04/03 02:35:14;;;;;;;11.90;7.00;;;0.60;99.90;;;;;;5079735;28;20223;-47
2023/04/03 02:37:40;;;;;;;10.83;7.63;;;0.60;99.90;;;;;;5080144;28;20189;-48
2023/04/03 02:40:07;;;;;;;11.87;7.93;;;0.60;99.90;;;;;;5079369;28;20239;-50
2023/04/03 02:42:32;;;;;;;12.53;8.47;;;0.60;99.90;;;;;;5079687;28;20205;-49
2023/04/03 02:45:00;;;;;;;10.87;8.43;;;0.60;99.90;;;;;;5078492;28;20177;-48
2023/04/03 02:47:26;;;;;;;14.13;9.03;;;0.60;99.90;;;;;;5078547;28;20590;-49
2023/04/03 02:49:52;;;;;;;17.17;9.17;;;0.60;99.90;;;;;;5079791;28;20915;-48
2023/04/03 02:52:18;;;;;;;13.60;8.27;;;0.60;99.90;;;;;;5081397;28;20427;-50
2023/04/03 02:54:44;;;;;;;15.33;8.80;;;0.50;99.90;;;;;;5082732;28;20221;-48
2023/04/03 02:57:10;;;;;;;12.33;8.33;;;0.60;99.90;;;;;;5082394;28;20196;-49
2023/04/03 02:59:41;;;;;;;9.63;8.03;;;0.50;99.90;;;;;;5082591;28;20198;-49
2023/04/03 03:02:08;;;;;;;10.37;7.60;;;0.50;99.90;;;;;;5083399;28;20431;-49
2023/04/03 03:04:35;;;;;;;9.63;7.67;;;0.50;99.90;;;;;;5082847;28;20434;-49
2023/04/03 03:07:01;;;;;;;15.10;7.07;;;0.60;99.90;;;;;;5079621;28;20797;-51
2023/04/03 03:09:26;;;;;;;12.37;7.43;;;0.60;99.90;;;;;;5079348;28;20185;-50
2023/04/03 03:11:52;;;;;;;15.13;7.90;;;0.60;99.90;;;;;;5079393;28;20551;-50
2023/04/03 03:14:17;;;;;;;10.20;7.03;;;0.70;99.90;;;;;;5078605;28;20206;-50
2023/04/03 03:16:43;;;;;;;8.03;7.00;;;0.70;99.90;;;;;;5077311;28;20633;-51
2023/04/03 03:19:09;;;;;;;9.33;6.30;;;0.70;99.90;;;;;;5058739;28;20212;-51
2023/04/03 03:21:35;;;;;;;8.13;6.37;;;0.70;99.90;;;;;;5077626;28;20210;-50
2023/04/03 03:24:00;;;;;;;11.70;6.53;;;0.70;99.90;;;;;;5080069;28;20248;-49
2023/04/03 03:26:26;;;;;;;9.37;6.57;;;0.70;99.90;;;;;;5080869;28;20188;-48
2023/04/03 03:28:51;;;;;;;8.87;6.03;;;0.60;99.90;;;;;;5081436;28;20181;-49
2023/04/03 03:31:17;;;;;;;9.17;6.20;;;0.60;99.90;;;;;;5080938;28;20205;-49
2023/04/03 03:33:43;;;;;;;11.47;6.33;;;0.60;99.90;;;;;;5081296;28;20653;-50
2023/04/03 03:36:08;;;;;;;7.83;6.07;;;0.50;99.90;;;;;;5081105;28;20641;-47
2023/04/03 03:38:34;;;;;;;7.37;5.77;;;0.50;99.90;;;;;;5063354;28;20181;-50
2023/04/03 03:41:00;;;;;;;10.60;6.60;;;0.40;99.90;;;;;;5081042;28;20204;-49
2023/04/03 03:43:25;;;;;;;13.23;7.40;;;0.30;99.90;;;;;;5063334;28;20201;-49
2023/04/03 03:45:52;;;;;;;9.80;7.00;;;0.30;99.90;;;;;;5079325;28;20324;-49
2023/04/03 03:48:18;;;;;;;9.33;7.40;;;0.20;99.90;;;;;;5099322;23;20264;-50
2023/04/03 03:50:44;;;;;;;14.57;6.93;;;0.20;99.90;;;;;;5093943;28;20419;-49
2023/04/03 03:53:09;;;;;;;10.80;7.27;;;0.20;99.90;;;;;;5092626;28;20463;-51
2023/04/03 03:55:35;;;;;;;10.37;6.77;;;0.20;99.90;;;;;;5093911;28;20180;-50
2023/04/03 03:58:01;;;;;;;8.53;6.67;;;0.20;99.90;;;;;;5093889;28;20178;-51
2023/04/03 04:00:27;;;;;;;13.10;7.30;;;0.30;99.90;;;;;;5094177;28;20239;-50
2023/04/03 04:02:53;;;;;;;9.70;6.40;;;0.30;99.90;;;;;;5093779;28;20442;-51
2023/04/03 04:05:19;;;;;;;10.07;7.00;;;0.30;99.90;;;;;;5094289;28;20418;-50
2023/04/03 04:07:45;;;;;;;10.23;6.33;;;0.30;99.90;;;;;;5094120;28;20195;-50
2023/04/03 04:10:10;;;;;;;11.23;6.60;;;0.30;99.90;;;;;;5094193;28;20923;-50
2023/04/03 04:12:36;;;;;;;11.13;7.10;;;0.20;99.90;;;;;;5094485;28;20570;-48
2023/04/03 04:15:03;;;;;;;13.80;7.80;;;0.20;99.90;;;;;;5094920;28;20211;-49
2023/04/03 04:17:28;;;;;;;10.40;6.83;;;0.20;99.90;;;;;;5094028;28;20236;-50
2023/04/03 04:19:54;;;;;;;14.87;6.70;;;0.20;99.90;;;;;;5094214;28;20840;-49
2023/04/03 04:22:19;;;;;;;10.33;6.43;;;0.10;99.90;;;;;;5095538;28;20198;-50
2023/04/03 04:24:45;;;;;;;9.30;6.70;;;0.10;99.90;;;;;;5093549;28;20552;-49
2023/04/03 04:27:10;;;;;;;11.27;6.10;;;0.00;99.90;;;;;;5093556;28;20184;-49
2023/04/03 04:29:37;;;;;;;10.27;5.80;;;0.00;99.90;;;;;;5093487;28;20522;-50
2023/04/03 04:32:04;;;;;;;7.47;5.53;;;0.00;99.90;;;;;;5093539;28;20202;-49
2023/04/03 04:34:29;;;;;;;9.27;6.17;;;0.00;99.90;;;;;;5093622;28;20450;-50
2023/04/03 04:36:55;;;;;;;11.77;6.47;;;0.00;99.90;;;;;;5093706;28;20415;-49
2023/04/03 04:39:21;;;;;;;9.67;6.00;;;0.00;99.90;;;;;;5094083;28;20181;-51
2023/04/03 04:41:46;;;;;;;7.80;6.13;;;0.00;99.90;;;;;;5093535;28;20202;-50
2023/04/03 04:44:12;;;;;;;9.13;6.63;;;0.00;99.90;;;;;;5095058;28;20229;-49
2023/04/03 04:46:37;;;;;;;8.60;6.17;;;0.10;99.90;;;;;;5097736;28;20180;-51
2023/04/03 04:49:03;;;;;;;10.03;6.23;;;0.10;99.90;;;;;;5097349;28;20258;-50
2023/04/03 04:51:29;;;;;;;14.10;6.23;;;0.20;99.90;;;;;;5097696;28;20201;-50
2023/04/03 04:53:55;;;;;;;14.00;7.50;;;0.20;99.90;;;;;;5097557;28;20203;-50
2023/04/03 04:56:21;;;;;;;11.87;7.23;;;0.20;99.90;;;;;;5097270;28;20419;-50
2023/04/03 04:58:47;;;;;;;11.40;7.60;;;0.30;99.90;;;;;;5097413;28;20176;-49
2023/04/03 05:01:12;;;;;;;12.37;7.80;;;0.30;99.90;;;;;;5097539;28;20439;-50
2023/04/03 05:03:38;;;;;;;11.37;7.43;;;0.30;99.90;;;;;;5097180;28;20189;-50
2023/04/03 05:06:04;;;;;;;11.90;7.77;;;0.30;99.90;;;;;;5097046;28;20184;-50
2023/04/03 05:08:30;;;;;;;12.73;7.47;;;0.40;99.90;;;;;;5096985;28;20305;-50
2023/04/03 05:10:56;;;;;;;12.60;7.50;;;0.40;99.90;;;;;;5096869;28;20932;-51
2023/04/03 05:13:22;;;;;;;10.70;7.40;;;0.40;99.90;;;;;;5096856;28;20459;-50
2023/04/03 05:15:47;;;;;;;10.53;7.60;;;0.40;99.90;;;;;;5097225;28;20181;-50
2023/04/03 05:18:13;;;;;;;10.83;7.37;;;0.30;99.90;;;;;;5096872;28;20268;-51
2023/04/03 05:20:39;;;;;;;12.17;7.77;;;0.30;99.90;;;;;;5097193;28;20259;-50
2023/04/03 05:23:05;;;;;;;12.50;7.17;;;0.40;99.90;;;;;;5096807;28;20209;-51
2023/04/03 05:25:31;;;;;;;14.37;7.00;;;0.30;99.90;;;;;;5096627;28;20209;-51
2023/04/03 05:27:56;;;;;;;11.40;6.83;;;0.30;99.90;;;;;;5095431;28;20432;-49
2023/04/03 05:30:22;;;;;;;13.90;8.90;;;0.30;99.90;;;;;;5096889;28;20597;-49
2023/04/03 05:32:48;;;;;;;11.50;7.07;;;0.30;99.90;;;;;;5096485;28;20279;-51
2023/04/03 05:35:13;;;;;;;13.47;7.03;;;0.30;99.90;;;;;;5096521;28;20177;-50
2023/04/03 05:37:39;;;;;;;10.77;7.27;;;0.30;99.90;;;;;;5096788;28;20530;-51
2023/04/03 05:40:06;;;;;;;9.30;6.10;;;0.30;99.90;;;;;;5096715;28;20181;-50
2023/04/03 05:42:32;;;;;;;11.27;6.20;;;0.40;99.90;;;;;;5096703;28;20209;-51
2023/04/03 05:44:58;;;;;;;9.30;5.17;;;0.40;99.90;;;;;;5096673;28;20430;-52
2023/04/03 05:47:23;;;;;;;8.47;6.33;;;0.40;99.90;;;;;;5096387;28;20232;-50
2023/04/03 05:49:49;;;;;;;11.73;6.10;;;0.40;99.90;;;;;;5096469;28;20168;-50
2023/04/03 05:52:29;;;;;;;8.87;5.73;;;0.40;99.90;;;;;;5096153;28;20196;-51
2023/04/03 05:54:55;;;;;;;11.23;5.50;;;0.40;99.90;;;;;;5096271;28;20269;-50
2023/04/03 05:57:21;;;;;;;12.10;6.10;;;0.50;99.90;;;;;;5096266;28;20915;-50
2023/04/03 05:59:47;;;;;;;10.77;5.80;;;0.50;99.90;;;;;;5096446;28;20506;-50
2023/04/03 06:02:15;;;;;;;12.20;6.10;;;0.60;99.90;;;;;;5095994;28;20238;-51
2023/04/03 06:04:41;;;;;;;12.33;6.10;;;0.70;99.90;;;;;;5096363;28;20631;-50
2023/04/03 06:07:09;;;;;;;11.23;5.63;;;0.70;99.90;;;;;;5096241;28;20440;-51
2023/04/03 06:09:35;;;;;;;10.53;6.03;;;0.70;99.90;;;;;;5095890;28;20636;-50
2023/04/03 06:12:01;;;;;;;8.90;5.53;;;0.80;99.90;;;;;;5095869;28;20503;-49
2023/04/03 06:14:27;;;;;;;13.27;5.70;;;0.80;99.90;;;;;;5096044;28;20211;-51
2023/04/03 06:16:53;;;;;;;12.63;6.10;;;0.80;99.90;;;;;;5095825;28;20478;-51
2023/04/03 06:19:20;;;;;;;10.77;5.70;;;0.90;99.90;;;;;;5095791;28;20192;-49
2023/04/03 06:21:47;;;;;;;9.07;5.03;;;0.90;99.90;;;;;;5096557;28;20437;-50
2023/04/03 06:24:15;;;;;;;12.10;5.37;;;0.90;99.90;;;;;;5095611;28;20804;-50
2023/04/03 06:26:41;;;;;;;9.70;5.40;;;1.00;99.90;;;;;;5095909;28;20494;-49
2023/04/03 06:29:07;;;;;;;11.47;5.30;;;1.10;99.90;;;;;;5095516;28;20426;-49
2023/04/03 06:31:33;;;;;;;10.80;5.73;;;1.20;99.90;;;;;;5095392;28;20484;-50
2023/04/03 06:33:59;;;;;;;9.40;5.40;;;1.30;99.90;;;;;;5095598;28;20561;-51
2023/04/03 06:36:25;;;;;;;12.77;5.27;;;1.40;99.90;;;;;;5095700;28;20175;-50
2023/04/03 06:38:51;;;;;;;9.37;4.50;;;1.50;99.90;;;;;;5095262;28;20660;-51
2023/04/03 06:41:17;;;;;;;8.63;4.53;;;1.50;99.90;;;;;;5095605;28;20443;-51
2023/04/03 06:43:43;;;;;;;9.27;4.87;;;1.70;99.90;;;;;;5095254;28;20185;-51
2023/04/03 06:46:21;;;;;;;6.67;4.77;;;1.70;99.90;;;;;;5095180;28;20524;-50
2023/04/03 06:48:47;;;;;;;12.40;5.03;;;1.80;99.90;;;;;;5095086;28;20783;-50
2023/04/03 06:51:19;;;;;;;11.63;4.80;;;1.80;99.90;;;;;;5095079;28;20434;-51
2023/04/03 06:53:46;;;;;;;9.03;5.00;;;1.90;99.90;;;;;;5094972;28;20300;-50
2023/04/03 06:56:11;;;;;;;9.30;4.57;;;1.90;99.90;;;;;;5095140;28;20493;-52
2023/04/03 06:58:37;;;;;;;9.30;4.30;;;2.00;99.90;;;;;;5094868;28;20510;-51
2023/04/03 07:01:03;;;;;;;9.17;3.93;;;2.10;99.90;;;;;;5094861;28;20609;-51
2023/04/03 07:03:28;;;;;;;5.70;3.70;;;2.20;99.90;;;;;;5095452;28;20178;-47
2023/04/03 07:05:54;;;;;;;9.30;3.90;;;2.20;99.90;;;;;;5094910;28;20189;-46
2023/04/03 07:08:20;;;;;;;6.97;4.03;;;2.40;99.90;;;;;;5094647;28;20213;-48
2023/04/03 07:10:45;;;;;;;12.17;4.50;;;2.50;99.90;;;;;;5094808;28;20197;-46
2023/04/03 07:13:11;;;;;;;9.87;4.23;;;2.50;99.90;;;;;;5094993;28;20212;-48
2023/04/03 07:15:36;;;;;;;10.33;4.77;;;2.60;99.90;;;;;;5094742;28;20546;-46
2023/04/03 07:18:02;;;;;;;6.33;4.33;;;2.60;99.90;;;;;;5095960;28;20539;-47
2023/04/03 07:20:28;;;;;;;8.70;4.00;;;2.70;99.90;;;;;;5096512;28;20227;-47
2023/04/03 07:22:54;;;;;;;7.53;3.87;;;2.80;99.90;;;;;;5097209;28;20267;-49
2023/04/03 07:25:19;;;;;;;6.43;3.70;;;2.80;99.90;;;;;;5097352;28;20178;-49
2023/04/03 07:27:45;;;;;;;7.20;3.10;;;2.90;99.90;;;;;;5096833;28;20175;-50
2023/04/03 07:30:11;;;;;;;6.43;3.40;;;3.00;99.90;;;;;;5096584;28;20186;-49
2023/04/03 07:32:37;;;;;;;8.37;3.07;;;3.10;99.90;;;;;;5094699;28;20556;-49
2023/04/03 07:35:03;;;;;;;8.33;3.30;;;3.20;99.90;;;;;;5094499;28;20221;-51
2023/04/03 07:37:28;;;;;;;4.80;2.90;;;3.20;99.90;;;;;;5094440;28;20175;-50
2023/04/03 07:39:55;;;;;;;6.10;3.47;;;3.30;99.90;;;;;;5094950;28;20178;-50
2023/04/03 07:42:21;;;;;;;10.37;4.00;;;3.40;99.90;;;;;;5094241;28;20210;-49
2023/04/03 07:44:47;;;;;;;6.10;3.30;;;3.40;99.90;;;;;;5094553;28;20186;-48
2023/04/03 07:47:14;;;;;;;6.33;3.10;;;3.50;99.90;;;;;;5093953;28;20662;-50
2023/04/03 07:49:40;;;;;;;7.23;3.00;;;3.60;99.90;;;;;;5092816;28;20649;-51
2023/04/03 07:52:07;;;;;;;7.67;3.30;;;3.50;99.90;;;;;;5094105;28;20205;-51
2023/04/03 07:54:33;;;;;;;11.93;3.57;;;3.60;99.90;;;;;;5093879;28;20252;-51
2023/04/03 07:56:59;;;;;;;8.10;3.60;;;3.70;99.90;;;;;;5094739;28;20530;-49
2023/04/03 07:59:24;;;;;;;5.47;3.30;;;3.70;99.90;;;;;;5092570;28;20263;-49
2023/04/03 08:01:50;;;;;;;12.27;3.23;;;3.80;99.90;;;;;;5094104;28;20199;-49
2023/04/03 08:04:16;;;;;;;11.50;3.53;;;3.80;99.90;;;;;;5094471;28;20262;-52
2023/04/03 08:06:41;;;;;;;7.23;3.13;;;3.90;99.90;;;;;;5094105;28;20214;-52
2023/04/03 08:09:07;;;;;;;9.47;4.67;;;4.10;99.90;;;;;;5092446;28;20183;-49
2023/04/03 08:11:32;;;;;;;8.47;3.63;;;4.20;99.90;;;;;;5093864;28;20200;-50
2023/04/03 08:13:58;;;;;;;10.63;4.37;;;4.30;99.90;;;;;;5093941;28;20655;-50
2023/04/03 08:16:26;;;;;;;6.00;3.00;;;4.40;99.90;;;;;;5093678;28;20208;-50
2023/04/03 08:18:52;;;;;;;7.97;3.60;;;4.40;99.90;;;;;;5092157;28;20181;-50
2023/04/03 08:21:17;;;;;;;8.30;4.03;;;4.50;99.90;;;;;;5094396;28;20766;-43
2023/04/03 08:23:43;;;;;;;4.73;2.47;;;4.60;99.90;;;;;;5093955;28;20184;-43
2023/04/03 08:26:10;;;;;;;9.83;3.00;;;4.70;99.90;;;;;;5093764;28;20544;-46
2023/04/03 08:28:36;;;;;;;5.37;2.30;;;5.00;99.90;;;;;;5094065;28;20182;-45
2023/04/03 08:31:07;;;;;;;6.33;3.33;;;5.10;99.90;;;;;;5093458;28;20209;-45
2023/04/03 08:33:35;;;;;;;6.33;2.10;;;5.20;99.90;;;;;;5093266;28;20261;-44
2023/04/03 08:36:02;;;;;;;7.33;3.87;;;5.30;99.90;;;;;;5093750;28;20644;-45
2023/04/03 08:38:28;;;;;;;7.57;4.07;;;5.40;99.90;;;;;;5092031;28;20182;-44
2023/04/03 08:41:15;;;;;;;4.50;2.73;;;5.40;99.90;;;;;;5093259;28;20262;-44
2023/04/03 08:44:17;;;;;;;11.80;6.77;;;5.50;99.90;;;;;;5093631;28;20212;-44
2023/04/03 08:47:24;;;;;;;6.37;2.70;;;5.60;99.90;;;;;;5093752;28;20606;-46
2023/04/03 08:50:00;;;;;;;7.63;2.77;;;5.60;99.90;;;;;;5093549;28;20182;-45
2023/04/03 08:52:31;;;;;;;4.50;2.00;;;5.60;99.90;;;;;;5093480;28;20198;-45
2023/04/03 08:55:00;;;;;;;5.00;2.40;;;5.70;99.90;;;;;;5093579;28;20187;-47
2023/04/03 08:57:44;;;;;;;5.53;1.97;;;5.80;99.90;;;;;;5093585;28;20186;-45
2023/04/03 09:00:17;;;;;;;6.80;2.27;;;5.90;99.90;;;;;;5093310;28;20670;-45
2023/04/03 09:02:48;;;;;;;4.10;1.40;;;6.00;99.90;;;;;;5093190;28;20700;-46
2023/04/03 09:05:20;;;;;;;3.80;1.70;;;6.10;99.90;;;;;;5093040;28;20643;-45
2023/04/03 09:07:52;;;;;;;5.80;2.10;;;6.10;99.90;;;;;;5091777;28;20181;-44
2023/04/03 09:10:26;;;;;;;4.27;1.43;;;6.10;99.90;;;;;;5093498;28;20155;-45
2023/04/03 09:13:26;;;;;;;2.73;1.50;;;6.10;99.90;;;;;;5092566;28;20561;-42
2023/04/03 09:15:53;;;;;;;5.17;1.80;;;6.10;99.90;;;;;;5089387;28;20184;-46
2023/04/03 09:18:25;;;;;;;3.50;1.83;;;6.20;99.90;;;;;;5093008;28;20167;-44
2023/04/03 09:21:16;;;;;;;6.40;2.43;;;6.30;99.90;;;;;;5093349;28;20178;-45
2023/04/03 09:23:50;;;;;;;4.77;1.70;;;6.50;99.90;;;;;;5093807;28;20175;-45
2023/04/03 09:26:21;;;;;;;5.07;1.90;;;6.60;99.90;;;;;;5093343;28;20163;-49
2023/04/03 09:28:47;;;;;;;2.90;1.57;;;6.60;99.90;;;;;;5093308;28;20169;-44
2023/04/03 09:31:24;;;;;;;5.97;2.60;;;6.70;99.90;;;;;;5094695;28;20811;-45
2023/04/03 09:33:54;;;;;;;4.60;1.70;;;6.80;99.90;;;;;;5096647;28;20657;-46
2023/04/03 09:36:39;;;;;;;4.47;2.00;;;6.90;99.90;;;;;;5096818;28;20205;-47
2023/04/03 09:39:09;;;;;;;5.23;1.97;;;7.10;99.90;;;;;;5096517;28;20688;-47
2023/04/03 09:41:35;;;;;;;3.33;1.10;;;7.20;99.90;;;;;;5096861;28;20202;-45
2023/04/03 09:44:01;;;;;;;7.57;2.77;;;7.40;99.90;;;;;;5096908;28;20273;-45
2023/04/03 09:46:32;;;;;;;3.90;1.70;;;7.60;99.90;;;;;;5096831;28;20178;-47
2023/04/03 09:49:04;;;;;;;7.23;2.00;;;7.80;99.90;;;;;;5096623;28;20193;-45
2023/04/03 09:51:30;;;;;;;3.83;2.00;;;7.80;99.90;;;;;;5096631;28;20565;-53
2023/04/03 09:53:56;;;;;;;3.87;1.87;;;7.80;99.90;;;;;;5096468;28;20202;-53
2023/04/03 09:56:29;;;;;;;7.57;1.70;;;7.70;99.90;;;;;;5096462;28;20194;-51
2023/04/03 09:59:03;;;;;;;4.70;1.40;;;7.80;99.90;;;;;;5096166;28;20159;-52
2023/04/03 10:01:34;;;;;;;10.57;3.43;;;7.90;99.90;;;;;;5095959;28;20335;-53
2023/04/03 10:04:12;;;;;;;9.50;3.60;;;8.00;99.90;;;;;;5095991;28;20223;-52
2023/04/03 10:06:43;;;;;;;8.93;3.53;;;8.10;99.90;;;;;;5096124;28;20198;-51
2023/04/03 10:09:29;;;;;;;7.53;2.57;;;8.20;99.90;;;;;;5096186;28;20164;-51
2023/04/03 10:12:04;;;;;;;6.10;2.50;;;8.20;99.90;;;;;;5096303;28;20225;-52
2023/04/03 10:14:31;;;;;;;9.77;3.90;;;8.30;99.90;;;;;;5095742;28;20201;-52
2023/04/03 10:17:00;;;;;;;6.33;1.63;;;8.40;99.90;;;;;;5096195;28;20228;-53
2023/04/03 10:19:46;;;;;;;9.27;3.23;;;8.40;99.90;;;;;;5095995;28;20171;-50
2023/04/03 10:22:34;;;;;;;3.33;1.50;;;8.50;99.90;;;;;;5096486;28;20199;-52
2023/04/03 10:25:22;;;;;;;4.27;1.80;;;8.50;99.90;;;;;;5095909;28;20210;-53
2023/04/03 10:28:08;;;;;;;3.50;2.27;;;8.70;99.90;;;;;;5095970;28;20193;-52
2023/04/03 10:30:52;;;;;;;4.27;1.47;;;8.70;99.90;;;;;;5095822;28;20171;-51
2023/04/03 10:33:29;;;;;;;2.23;1.10;;;8.60;99.90;;;;;;5095567;28;20187;-52
2023/04/03 10:36:13;;;;;;;2.23;1.10;;;8.50;99.90;;;;;;5094179;28;20212;-52
2023/04/03 10:39:01;;;;;;;3.33;0.90;;;8.40;99.90;;;;;;5095483;28;20576;-53
2023/04/03 10:41:56;;;;;;;5.83;1.80;;;8.50;99.90;;;;;;5094128;28;20191;-51
2023/04/03 10:44:59;;;;;;;2.60;1.37;;;8.50;99.90;;;;;;5095625;28;20171;-53
2023/04/03 10:47:34;;;;;;;2.47;1.07;;;8.70;99.90;;;;;;5095354;28;20592;-53
2023/04/03 10:50:18;;;;;;;3.27;1.77;;;8.80;99.90;;;;;;5095193;28;20185;-52
2023/04/03 10:52:50;;;;;;;4.77;1.90;;;8.70;99.90;;;;;;5095158;28;20251;-52
2023/04/03 10:55:48;;;;;;;4.67;1.43;;;8.80;99.90;;;;;;5095056;28;20183;-52
2023/04/03 10:58:34;;;;;;;2.13;0.93;;;9.00;99.90;;;;;;5095273;28;20171;-52
2023/04/03 11:01:12;;;;;;;2.80;1.20;;;9.20;99.90;;;;;;5094848;28;20701;-52
2023/04/03 11:03:58;;;;;;;2.50;1.30;;;9.50;99.90;;;;;;5095190;28;20267;-53
2023/04/03 11:06:36;;;;;;;4.23;1.13;;;9.70;99.90;;;;;;5095924;28;20502;-53
2023/04/03 11:09:18;;;;;;;2.73;1.10;;;9.80;99.90;;;;;;5095003;28;20163;-47
2023/04/03 11:11:44;;;;;;;4.47;1.30;;;9.60;99.90;;;;;;5094917;28;20194;-45
2023/04/03 11:14:16;;;;;;;5.27;1.20;;;9.50;99.90;;;;;;5094641;28;20205;-47
2023/04/03 11:16:46;;;;;;;2.83;1.30;;;9.50;99.90;;;;;;5094698;28;20622;-45
2023/04/03 11:19:21;;;;;;;5.13;1.30;;;9.40;99.90;;;;;;5094782;28;20147;-46
2023/04/03 11:22:22;;;;;;;2.13;1.20;;;9.30;99.90;;;;;;5095572;28;20226;-47
2023/04/03 11:24:58;;;;;;;2.03;0.83;;;9.20;99.90;;;;;;5081111;28;20187;-46
2023/04/03 11:27:25;;;;;;;2.77;1.10;;;9.30;99.90;;;;;;5094834;28;20183;-46
2023/04/03 11:29:52;;;;;;;1.83;1.10;;;9.60;99.90;;;;;;5094712;28;20178;-44
2023/04/03 11:32:47;;;;;;;5.37;1.40;;;9.90;99.90;;;;;;5094310;28;20186;-46
2023/04/03 11:35:15;;;;;;;2.37;1.50;;;10.10;99.90;;;;;;5094086;28;20554;-46
2023/04/03 11:37:47;;;;;;;2.73;1.40;;;10.30;99.90;;;;;;5094546;28;20179;-46
2023/04/03 11:40:15;;;;;;;3.63;1.10;;;10.40;99.90;;;;;;5094824;28;20163;-44
2023/04/03 11:42:45;;;;;;;2.83;1.20;;;10.50;99.90;;;;;;5094399;28;20195;-48
2023/04/03 11:45:23;;;;;;;3.93;1.33;;;10.60;99.90;;;;;;5094161;28;20551;-44
2023/04/03 11:47:50;;;;;;;3.50;1.20;;;10.70;99.90;;;;;;5094201;28;20188;-46
2023/04/03 11:50:35;;;;;;;3.10;1.00;;;10.80;99.90;;;;;;5094326;28;20179;-45
2023/04/03 11:53:06;;;;;;;3.10;1.50;;;10.90;99.90;;;;;;5093829;28;20179;-46
2023/04/03 11:55:32;;;;;;;5.23;1.60;;;11.00;99.90;;;;;;5094052;28;20225;-46
2023/04/03 11:57:57;;;;;;;2.50;0.90;;;11.10;99.90;;;;;;5094173;28;20654;-46
2023/04/03 12:00:51;;;;;;;2.00;0.97;;;11.10;99.90;;;;;;5093928;28;20193;-47
2023/04/03 12:03:26;;;;;;;2.27;1.10;;;11.10;99.90;;;;;;5094129;28;20532;-45
2023/04/03 12:06:13;;;;;;;6.90;1.37;;;11.00;99.90;;;;;;5093806;28;20723;-51
2023/04/03 12:08:41;;;;;;;8.83;3.73;;;10.80;99.90;;;;;;5093834;28;20805;-50
2023/04/03 12:11:10;;;;;;;7.00;2.53;;;10.60;99.90;;;;;;5093875;28;20209;-50
2023/04/03 12:13:57;;;;;;;3.23;1.10;;;10.60;99.90;;;;;;5095546;28;20191;-51
2023/04/03 12:16:37;;;;;;;1.27;0.77;;;10.80;99.90;;;;;;5093653;28;20249;-50
2023/04/03 12:19:34;;;;;;;2.53;1.20;;;11.00;99.90;;;;;;5094888;28;20182;-49
2023/04/03 12:21:59;;;;;;;6.40;3.30;;;11.20;99.90;;;;;;5090474;28;20214;-48
2023/04/03 12:24:30;;;;;;;8.00;3.20;;;11.30;99.90;;;;;;5093844;28;20175;-47
2023/04/03 12:27:09;;;;;;;6.90;2.73;;;11.30;99.90;;;;;;5093670;28;20174;-47
2023/04/03 12:29:44;;;;;;;2.17;1.10;;;11.20;99.90;;;;;;5093954;28;20170;-45
2023/04/03 12:32:15;;;;;;;4.37;1.40;;;11.30;99.90;;;;;;5093706;28;20201;-47
2023/04/03 12:34:50;;;;;;;5.17;1.60;;;11.30;99.90;;;;;;5093785;28;20198;-49
2023/04/03 12:37:29;;;;;;;3.53;1.03;;;11.30;99.90;;;;;;5093698;28;20193;-45
2023/04/03 12:40:24;;;;;;;1.40;0.90;;;11.50;99.90;;;;;;5093999;28;20163;-47
2023/04/03 12:42:59;;;;;;;6.13;1.80;;;11.70;99.90;;;;;;5093627;28;20191;-47
2023/04/03 12:45:26;;;;;;;3.17;1.53;;;11.70;99.90;;;;;;5093314;28;20309;-48
2023/04/03 12:47:54;;;;;;;4.30;1.53;;;11.60;99.90;;;;;;5093456;28;20199;-48
2023/04/03 12:50:29;;;;;;;4.03;0.93;;;11.60;99.10;;;;;;5093348;28;20171;-46
2023/04/03 12:53:02;;;;;;;4.70;1.10;;;11.50;99.50;;;;;;5093512;28;20194;-47
2023/04/03 12:55:28;;;;;;;5.33;1.70;;;11.40;98.70;;;;;;5094054;28;20159;-49
2023/04/03 12:57:53;;;;;;;2.63;1.13;;;11.30;99.90;;;;;;5093598;28;20178;-47
2023/04/03 13:00:34;;;;;;;4.13;1.17;;;11.50;99.90;;;;;;5093843;28;20167;-49
2023/04/03 13:03:03;;;;;;;3.83;1.37;;;11.40;96.70;;;;;;5093533;28;20174;-52
2023/04/03 13:05:30;;;;;;;2.37;1.33;;;11.30;95.20;;;;;;5095671;28;20167;-51